サンパウロ/グアルーリョス の空港の天気 - METARとTAF

グアルーリョス国際空港 (サンパウロ) ( SBGR / GRU ) - ブラジル サンパウロ州サンパウロ市
飛行場実況気象(Metar)
観測時間11/14 15:00 BRST (11/14 17:00 UTC)
風向・風速西北西 6m/s
視程10km以上
天気現象
なし
気温32℃
湿度46%
気圧1011hPa
METARSBGR 141700Z 30011KT CAVOK 32/19 Q1011
過去の天気等 Google飛行場航空写真 Wunderground天気予報

過去48時間のMETAR

飛行場予報(TAF)
発表時間: 11/14 06:45 BRST (11/14 08:45 UTC)
予報対象時間: 14日10時 BRST ~ 15日16時 BRST
風向・風速北 5m/s
視程10km以上
なし
14日10時 BRST ~ 14日12時 BRST に徐々に
風向・風速北北西 5m/s
14日13時 BRST から 確率 30% で
全天の4割程度の雲 雲底高度 1220m
少しの塔状積雲 雲底高度 1520m
14日16時 BRST ~ 14日18時 BRST に徐々に
風向・風速北北西 3m/s
15日8時 BRST から 確率 40% で
風向・風速西 7m/s
視程8000m
天気現象
全天の8割程度の雲 雲底高度 610m
15日10時 BRST ~ 15日12時 BRST に徐々に
風向・風速南南西 4m/s
全天の8割程度の雲 雲底高度 460m
15日13時 BRST ~ 15日15時 BRST に徐々に
風向・風速南 3m/s
全天の8割程度の雲 雲底高度 300m
TAF SBGR 140845Z 1412/1518 36010KT CAVOK TX32/1418Z TN21/1508Z
BECMG 1412/1414 33010KT
PROB30 1415/1418 SCT040 FEW050TCU
BECMG 1418/1420 34006KT
PROB40 1510/1512 28013KT 8000 RA BKN020
BECMG 1512/1514 20008KT BKN015
BECMG 1515/1517 17005KT BKN010 RMK PGL